sensor_id;sensor_type;location;lat;lon;timestamp;pressure;altitude;pressure_sealevel;temperature;humidity
45763;BME280;37512;52.408;13.356;2022-08-19T00:01:16;100441.56;;;20.71;100.00
45763;BME280;37512;52.408;13.356;2022-08-19T00:05:30;100436.38;;;20.85;100.00
45763;BME280;37512;52.408;13.356;2022-08-19T00:09:33;100440.09;;;20.82;100.00
45763;BME280;37512;52.408;13.356;2022-08-19T00:13:35;100434.38;;;20.70;100.00
45763;BME280;37512;52.408;13.356;2022-08-19T00:17:37;100429.66;;;20.79;100.00
45763;BME280;37512;52.408;13.356;2022-08-19T00:21:42;100428.00;;;20.65;100.00
45763;BME280;37512;52.408;13.356;2022-08-19T00:25:44;100424.31;;;20.68;100.00
45763;BME280;37512;52.408;13.356;2022-08-19T00:29:49;100423.44;;;20.72;100.00
45763;BME280;37512;52.408;13.356;2022-08-19T00:33:53;100416.81;;;20.78;100.00
45763;BME280;37512;52.408;13.356;2022-08-19T00:37:55;100414.97;;;20.72;100.00
45763;BME280;37512;52.408;13.356;2022-08-19T00:41:57;100395.25;;;20.72;100.00
45763;BME280;37512;52.408;13.356;2022-08-19T00:45:58;100401.19;;;20.90;100.00
45763;BME280;37512;52.408;13.356;2022-08-19T00:50:00;100399.13;;;20.78;100.00
45763;BME280;37512;52.408;13.356;2022-08-19T00:54:03;100398.59;;;20.66;100.00
45763;BME280;37512;52.408;13.356;2022-08-19T00:58:10;100399.91;;;20.78;100.00
45763;BME280;37512;52.408;13.356;2022-08-19T01:02:14;100392.19;;;20.95;100.00
45763;BME280;37512;52.408;13.356;2022-08-19T01:06:16;100393.47;;;20.78;100.00
45763;BME280;37512;52.408;13.356;2022-08-19T01:10:25;100393.44;;;20.94;100.00
45763;BME280;37512;52.408;13.356;2022-08-19T01:14:28;100402.69;;;20.95;100.00
45763;BME280;37512;52.408;13.356;2022-08-19T01:18:31;100425.34;;;20.91;100.00
45763;BME280;37512;52.408;13.356;2022-08-19T01:22:43;100437.06;;;20.89;100.00
45763;BME280;37512;52.408;13.356;2022-08-19T01:26:46;100430.03;;;20.65;100.00
45763;BME280;37512;52.408;13.356;2022-08-19T01:30:49;100430.22;;;20.41;100.00
45763;BME280;37512;52.408;13.356;2022-08-19T01:34:51;100435.50;;;20.56;100.00
45763;BME280;37512;52.408;13.356;2022-08-19T01:38:54;100429.75;;;20.26;100.00
45763;BME280;37512;52.408;13.356;2022-08-19T01:42:57;100428.00;;;20.16;100.00
45763;BME280;37512;52.408;13.356;2022-08-19T01:46:59;100433.06;;;20.05;100.00
45763;BME280;37512;52.408;13.356;2022-08-19T01:51:00;100434.28;;;20.04;100.00
45763;BME280;37512;52.408;13.356;2022-08-19T01:55:04;100440.28;;;20.06;100.00
45763;BME280;37512;52.408;13.356;2022-08-19T01:59:10;100448.31;;;20.24;100.00
45763;BME280;37512;52.408;13.356;2022-08-19T02:03:13;100416.97;;;20.05;100.00
45763;BME280;37512;52.408;13.356;2022-08-19T02:07:15;100406.47;;;20.06;100.00
45763;BME280;37512;52.408;13.356;2022-08-19T02:11:26;100389.13;;;19.91;100.00
45763;BME280;37512;52.408;13.356;2022-08-19T02:15:30;100370.03;;;19.99;100.00
45763;BME280;37512;52.408;13.356;2022-08-19T02:19:33;100356.53;;;19.74;100.00
45763;BME280;37512;52.408;13.356;2022-08-19T02:23:34;100341.25;;;20.08;100.00
45763;BME280;37512;52.408;13.356;2022-08-19T02:27:36;100324.88;;;20.19;100.00
45763;BME280;37512;52.408;13.356;2022-08-19T02:31:38;100323.75;;;20.16;100.00
45763;BME280;37512;52.408;13.356;2022-08-19T02:35:43;100313.50;;;20.22;100.00
45763;BME280;37512;52.408;13.356;2022-08-19T02:39:45;100303.66;;;20.14;100.00
45763;BME280;37512;52.408;13.356;2022-08-19T02:43:47;100302.00;;;20.17;100.00
45763;BME280;37512;52.408;13.356;2022-08-19T02:48:08;100310.88;;;20.15;100.00
45763;BME280;37512;52.408;13.356;2022-08-19T02:52:21;100319.25;;;20.19;100.00
45763;BME280;37512;52.408;13.356;2022-08-19T02:56:24;100330.69;;;20.12;100.00
45763;BME280;37512;52.408;13.356;2022-08-19T03:00:28;100340.88;;;20.38;100.00
45763;BME280;37512;52.408;13.356;2022-08-19T03:04:29;100341.97;;;20.28;100.00
45763;BME280;37512;52.408;13.356;2022-08-19T03:08:31;100347.94;;;20.30;100.00
45763;BME280;37512;52.408;13.356;2022-08-19T03:12:36;100346.25;;;19.83;100.00
45763;BME280;37512;52.408;13.356;2022-08-19T03:16:46;100353.28;;;19.75;100.00
45763;BME280;37512;52.408;13.356;2022-08-19T03:20:50;100343.63;;;19.93;100.00
45763;BME280;37512;52.408;13.356;2022-08-19T03:24:54;100338.69;;;19.97;100.00
45763;BME280;37512;52.408;13.356;2022-08-19T03:28:55;100338.75;;;19.93;100.00
45763;BME280;37512;52.408;13.356;2022-08-19T03:32:59;100327.00;;;20.15;100.00
45763;BME280;37512;52.408;13.356;2022-08-19T03:37:05;100323.03;;;20.29;100.00
45763;BME280;37512;52.408;13.356;2022-08-19T03:41:10;100315.28;;;20.33;100.00
45763;BME280;37512;52.408;13.356;2022-08-19T03:45:12;100326.03;;;20.21;100.00
45763;BME280;37512;52.408;13.356;2022-08-19T03:49:14;100332.69;;;20.11;100.00
45763;BME280;37512;52.408;13.356;2022-08-19T03:53:18;100318.44;;;19.85;100.00
45763;BME280;37512;52.408;13.356;2022-08-19T03:57:20;100326.81;;;20.05;100.00
45763;BME280;37512;52.408;13.356;2022-08-19T04:01:30;100327.09;;;20.27;100.00
45763;BME280;37512;52.408;13.356;2022-08-19T04:05:35;100328.81;;;20.38;100.00
45763;BME280;37512;52.408;13.356;2022-08-19T04:09:39;100332.19;;;20.16;100.00
45763;BME280;37512;52.408;13.356;2022-08-19T04:13:41;100358.75;;;20.32;100.00
45763;BME280;37512;52.408;13.356;2022-08-19T04:17:44;100348.22;;;20.19;100.00
45763;BME280;37512;52.408;13.356;2022-08-19T04:21:48;100349.63;;;20.27;100.00
45763;BME280;37512;52.408;13.356;2022-08-19T04:25:51;100362.28;;;20.36;100.00
45763;BME280;37512;52.408;13.356;2022-08-19T04:29:52;100371.69;;;20.45;100.00
45763;BME280;37512;52.408;13.356;2022-08-19T04:33:59;100362.66;;;20.38;100.00
45763;BME280;37512;52.408;13.356;2022-08-19T04:38:01;100359.72;;;20.25;100.00
45763;BME280;37512;52.408;13.356;2022-08-19T04:42:02;100342.22;;;20.34;100.00
45763;BME280;37512;52.408;13.356;2022-08-19T04:46:31;100347.94;;;20.30;100.00
45763;BME280;37512;52.408;13.356;2022-08-19T04:50:56;100362.56;;;20.41;100.00
45763;BME280;37512;52.408;13.356;2022-08-19T04:54:58;100351.88;;;20.49;100.00
45763;BME280;37512;52.408;13.356;2022-08-19T04:59:00;100351.19;;;20.61;100.00
45763;BME280;37512;52.408;13.356;2022-08-19T05:03:05;100338.06;;;20.71;100.00
45763;BME280;37512;52.408;13.356;2022-08-19T05:07:08;100338.63;;;20.79;100.00
45763;BME280;37512;52.408;13.356;2022-08-19T05:15:16;100333.69;;;20.83;100.00
45763;BME280;37512;52.408;13.356;2022-08-19T05:19:17;100321.53;;;20.86;100.00
45763;BME280;37512;52.408;13.356;2022-08-19T05:23:38;100318.34;;;20.84;100.00
45763;BME280;37512;52.408;13.356;2022-08-19T05:27:41;100324.41;;;20.99;100.00
45763;BME280;37512;52.408;13.356;2022-08-19T05:31:43;100322.41;;;21.12;100.00
45763;BME280;37512;52.408;13.356;2022-08-19T05:35:45;100326.16;;;21.22;100.00
45763;BME280;37512;52.408;13.356;2022-08-19T05:39:48;100317.13;;;21.27;100.00
45763;BME280;37512;52.408;13.356;2022-08-19T05:43:57;100326.50;;;21.24;100.00
45763;BME280;37512;52.408;13.356;2022-08-19T05:47:58;100336.47;;;21.41;100.00
45763;BME280;37512;52.408;13.356;2022-08-19T05:52:05;100349.38;;;21.42;100.00
45763;BME280;37512;52.408;13.356;2022-08-19T05:56:10;100343.28;;;21.57;100.00
45763;BME280;37512;52.408;13.356;2022-08-19T06:00:12;100351.97;;;21.49;100.00
45763;BME280;37512;52.408;13.356;2022-08-19T06:04:15;100359.22;;;21.21;100.00
45763;BME280;37512;52.408;13.356;2022-08-19T06:08:16;100355.69;;;21.59;100.00
45763;BME280;37512;52.408;13.356;2022-08-19T06:12:19;100339.56;;;21.72;100.00
45763;BME280;37512;52.408;13.356;2022-08-19T06:16:21;100334.16;;;21.78;100.00
45763;BME280;37512;52.408;13.356;2022-08-19T06:20:23;100334.13;;;21.52;100.00
45763;BME280;37512;52.408;13.356;2022-08-19T06:24:45;100336.63;;;21.89;100.00
45763;BME280;37512;52.408;13.356;2022-08-19T06:28:47;100347.47;;;21.90;100.00
45763;BME280;37512;52.408;13.356;2022-08-19T06:32:51;100362.28;;;21.95;100.00
45763;BME280;37512;52.408;13.356;2022-08-19T06:36:53;100374.47;;;22.04;100.00
45763;BME280;37512;52.408;13.356;2022-08-19T06:41:03;100389.16;;;21.74;100.00
45763;BME280;37512;52.408;13.356;2022-08-19T06:45:08;100402.94;;;21.84;100.00
45763;BME280;37512;52.408;13.356;2022-08-19T06:49:10;100405.41;;;21.57;100.00
45763;BME280;37512;52.408;13.356;2022-08-19T06:53:15;100398.03;;;21.46;100.00
45763;BME280;37512;52.408;13.356;2022-08-19T06:57:16;100398.66;;;21.80;100.00
45763;BME280;37512;52.408;13.356;2022-08-19T07:01:19;100394.69;;;22.03;100.00
45763;BME280;37512;52.408;13.356;2022-08-19T07:05:21;100387.00;;;22.16;100.00
45763;BME280;37512;52.408;13.356;2022-08-19T07:09:22;100377.97;;;22.47;100.00
45763;BME280;37512;52.408;13.356;2022-08-19T07:13:24;100366.47;;;22.28;100.00
45763;BME280;37512;52.408;13.356;2022-08-19T07:17:26;100384.06;;;22.58;100.00
45763;BME280;37512;52.408;13.356;2022-08-19T07:21:28;100398.16;;;22.71;100.00
45763;BME280;37512;52.408;13.356;2022-08-19T07:25:30;100412.78;;;22.91;100.00
45763;BME280;37512;52.408;13.356;2022-08-19T07:29:34;100417.31;;;22.54;100.00
45763;BME280;37512;52.408;13.356;2022-08-19T07:33:38;100418.34;;;22.34;100.00
45763;BME280;37512;52.408;13.356;2022-08-19T07:37:40;100414.28;;;22.36;100.00
45763;BME280;37512;52.408;13.356;2022-08-19T07:41:46;100413.72;;;22.41;100.00
45763;BME280;37512;52.408;13.356;2022-08-19T07:45:48;100427.00;;;22.79;100.00
45763;BME280;37512;52.408;13.356;2022-08-19T07:49:49;100424.72;;;22.73;100.00
45763;BME280;37512;52.408;13.356;2022-08-19T07:53:51;100432.94;;;22.46;100.00
45763;BME280;37512;52.408;13.356;2022-08-19T07:57:52;100440.72;;;22.42;100.00
45763;BME280;37512;52.408;13.356;2022-08-19T08:01:55;100446.41;;;22.89;100.00
45763;BME280;37512;52.408;13.356;2022-08-19T08:05:57;100446.56;;;23.21;100.00
45763;BME280;37512;52.408;13.356;2022-08-19T08:10:17;100461.03;;;22.88;100.00
45763;BME280;37512;52.408;13.356;2022-08-19T08:14:27;100463.53;;;22.86;100.00
45763;BME280;37512;52.408;13.356;2022-08-19T08:18:35;100470.53;;;21.91;100.00
45763;BME280;37512;52.408;13.356;2022-08-19T08:22:44;100470.81;;;22.74;100.00
45763;BME280;37512;52.408;13.356;2022-08-19T08:27:04;100470.25;;;22.41;100.00
45763;BME280;37512;52.408;13.356;2022-08-19T08:31:11;100467.94;;;22.10;100.00
45763;BME280;37512;52.408;13.356;2022-08-19T08:35:15;100474.28;;;22.14;100.00
45763;BME280;37512;52.408;13.356;2022-08-19T08:39:20;100475.31;;;22.20;100.00
45763;BME280;37512;52.408;13.356;2022-08-19T08:43:35;100469.41;;;22.14;100.00
45763;BME280;37512;52.408;13.356;2022-08-19T08:47:39;100483.69;;;22.62;100.00
45763;BME280;37512;52.408;13.356;2022-08-19T08:51:46;100487.91;;;22.32;100.00
45763;BME280;37512;52.408;13.356;2022-08-19T08:56:02;100480.72;;;22.14;100.00
45763;BME280;37512;52.408;13.356;2022-08-19T09:00:07;100491.91;;;22.05;100.00
45763;BME280;37512;52.408;13.356;2022-08-19T09:04:16;100496.66;;;21.96;100.00
45763;BME280;37512;52.408;13.356;2022-08-19T09:17:31;100484.47;;;21.99;100.00
45763;BME280;37512;52.408;13.356;2022-08-19T09:21:36;100480.84;;;22.11;100.00
45763;BME280;37512;52.408;13.356;2022-08-19T09:25:41;100485.19;;;21.74;100.00
45763;BME280;37512;52.408;13.356;2022-08-19T09:29:42;100474.34;;;22.27;100.00
45763;BME280;37512;52.408;13.356;2022-08-19T09:33:44;100469.56;;;22.37;100.00
45763;BME280;37512;52.408;13.356;2022-08-19T09:37:45;100464.38;;;22.22;100.00
45763;BME280;37512;52.408;13.356;2022-08-19T09:41:47;100473.66;;;22.36;100.00
45763;BME280;37512;52.408;13.356;2022-08-19T09:45:52;100469.53;;;22.88;100.00
45763;BME280;37512;52.408;13.356;2022-08-19T09:49:53;100472.44;;;22.97;100.00
45763;BME280;37512;52.408;13.356;2022-08-19T09:53:59;100475.09;;;22.79;100.00
45763;BME280;37512;52.408;13.356;2022-08-19T09:58:05;100475.78;;;22.70;100.00
45763;BME280;37512;52.408;13.356;2022-08-19T10:02:06;100471.81;;;22.42;100.00
45763;BME280;37512;52.408;13.356;2022-08-19T10:06:11;100468.78;;;22.36;100.00
45763;BME280;37512;52.408;13.356;2022-08-19T10:10:17;100472.16;;;22.44;100.00
45763;BME280;37512;52.408;13.356;2022-08-19T10:14:20;100463.25;;;22.58;100.00
45763;BME280;37512;52.408;13.356;2022-08-19T10:18:25;100466.91;;;22.81;100.00
45763;BME280;37512;52.408;13.356;2022-08-19T10:22:27;100466.34;;;22.86;100.00
45763;BME280;37512;52.408;13.356;2022-08-19T10:26:32;100475.41;;;22.81;100.00
45763;BME280;37512;52.408;13.356;2022-08-19T10:30:41;100467.16;;;22.73;100.00
45763;BME280;37512;52.408;13.356;2022-08-19T10:34:43;100476.53;;;21.93;100.00
45763;BME280;37512;52.408;13.356;2022-08-19T10:38:51;100478.16;;;22.20;100.00
45763;BME280;37512;52.408;13.356;2022-08-19T10:42:57;100466.19;;;22.42;100.00
45763;BME280;37512;52.408;13.356;2022-08-19T10:46:59;100474.63;;;22.16;100.00
45763;BME280;37512;52.408;13.356;2022-08-19T10:51:01;100467.09;;;22.39;100.00
45763;BME280;37512;52.408;13.356;2022-08-19T10:55:23;100474.75;;;22.51;100.00
45763;BME280;37512;52.408;13.356;2022-08-19T10:59:51;100471.03;;;22.41;100.00
45763;BME280;37512;52.408;13.356;2022-08-19T11:03:53;100481.88;;;22.55;100.00
45763;BME280;37512;52.408;13.356;2022-08-19T11:07:54;100491.25;;;22.01;100.00
45763;BME280;37512;52.408;13.356;2022-08-19T11:11:57;100488.69;;;22.32;100.00
45763;BME280;37512;52.408;13.356;2022-08-19T11:16:12;100487.22;;;22.28;100.00
45763;BME280;37512;52.408;13.356;2022-08-19T11:20:15;100485.59;;;22.14;100.00
45763;BME280;37512;52.408;13.356;2022-08-19T11:24:20;100487.19;;;22.15;100.00
45763;BME280;37512;52.408;13.356;2022-08-19T11:28:22;100495.47;;;22.22;100.00
45763;BME280;37512;52.408;13.356;2022-08-19T11:32:23;100488.75;;;22.16;100.00
45763;BME280;37512;52.408;13.356;2022-08-19T11:36:26;100482.53;;;22.08;100.00
45763;BME280;37512;52.408;13.356;2022-08-19T11:40:27;100481.00;;;22.46;100.00
45763;BME280;37512;52.408;13.356;2022-08-19T11:44:29;100482.03;;;22.52;100.00
45763;BME280;37512;52.408;13.356;2022-08-19T11:48:31;100496.16;;;22.39;100.00
45763;BME280;37512;52.408;13.356;2022-08-19T11:52:33;100507.34;;;22.55;100.00
45763;BME280;37512;52.408;13.356;2022-08-19T11:56:36;100518.66;;;22.81;100.00
45763;BME280;37512;52.408;13.356;2022-08-19T12:00:39;100515.34;;;22.95;100.00
45763;BME280;37512;52.408;13.356;2022-08-19T12:04:43;100519.19;;;22.89;100.00
45763;BME280;37512;52.408;13.356;2022-08-19T12:08:45;100513.66;;;22.85;100.00
45763;BME280;37512;52.408;13.356;2022-08-19T12:12:46;100527.00;;;22.97;100.00
45763;BME280;37512;52.408;13.356;2022-08-19T12:16:59;100530.53;;;22.63;100.00
45763;BME280;37512;52.408;13.356;2022-08-19T12:21:01;100529.50;;;22.83;100.00
45763;BME280;37512;52.408;13.356;2022-08-19T12:25:04;100536.50;;;22.91;100.00
45763;BME280;37512;52.408;13.356;2022-08-19T12:29:06;100534.72;;;22.71;100.00
45763;BME280;37512;52.408;13.356;2022-08-19T12:33:09;100528.16;;;22.74;100.00
45763;BME280;37512;52.408;13.356;2022-08-19T12:37:11;100543.63;;;22.83;100.00
45763;BME280;37512;52.408;13.356;2022-08-19T12:41:14;100537.22;;;22.57;100.00
45763;BME280;37512;52.408;13.356;2022-08-19T12:45:16;100530.59;;;22.98;100.00
45763;BME280;37512;52.408;13.356;2022-08-19T12:49:18;100535.38;;;23.01;100.00
45763;BME280;37512;52.408;13.356;2022-08-19T12:53:40;100526.88;;;23.14;100.00
45763;BME280;37512;52.408;13.356;2022-08-19T12:57:41;100523.88;;;23.30;100.00
45763;BME280;37512;52.408;13.356;2022-08-19T13:01:43;100532.78;;;23.07;100.00
45763;BME280;37512;52.408;13.356;2022-08-19T13:05:45;100553.84;;;22.67;100.00
45763;BME280;37512;52.408;13.356;2022-08-19T13:09:46;100557.13;;;22.53;100.00
45763;BME280;37512;52.408;13.356;2022-08-19T13:13:49;100556.09;;;22.85;100.00
45763;BME280;37512;52.408;13.356;2022-08-19T13:17:54;100552.94;;;22.83;100.00
45763;BME280;37512;52.408;13.356;2022-08-19T13:22:00;100554.84;;;22.73;100.00
45763;BME280;37512;52.408;13.356;2022-08-19T13:26:04;100543.00;;;22.79;100.00
45763;BME280;37512;52.408;13.356;2022-08-19T13:30:09;100550.56;;;22.56;100.00
45763;BME280;37512;52.408;13.356;2022-08-19T13:34:33;100539.34;;;22.91;100.00
45763;BME280;37512;52.408;13.356;2022-08-19T13:38:36;100546.50;;;22.70;100.00
45763;BME280;37512;52.408;13.356;2022-08-19T13:42:39;100538.81;;;22.83;100.00
45763;BME280;37512;52.408;13.356;2022-08-19T13:46:41;100542.31;;;22.62;100.00
45763;BME280;37512;52.408;13.356;2022-08-19T13:50:46;100535.53;;;22.72;100.00
45763;BME280;37512;52.408;13.356;2022-08-19T13:54:49;100534.06;;;22.67;100.00
45763;BME280;37512;52.408;13.356;2022-08-19T13:58:50;100542.19;;;22.52;100.00
45763;BME280;37512;52.408;13.356;2022-08-19T14:02:54;100521.59;;;22.52;100.00
45763;BME280;37512;52.408;13.356;2022-08-19T14:06:55;100531.63;;;22.91;100.00
45763;BME280;37512;52.408;13.356;2022-08-19T14:10:57;100532.56;;;22.88;100.00
45763;BME280;37512;52.408;13.356;2022-08-19T14:15:09;100533.00;;;22.87;100.00
45763;BME280;37512;52.408;13.356;2022-08-19T14:19:10;100536.28;;;23.11;100.00
45763;BME280;37512;52.408;13.356;2022-08-19T14:23:12;100528.41;;;22.67;100.00
45763;BME280;37512;52.408;13.356;2022-08-19T14:27:14;100534.22;;;22.98;100.00
45763;BME280;37512;52.408;13.356;2022-08-19T14:31:17;100522.50;;;23.00;100.00
45763;BME280;37512;52.408;13.356;2022-08-19T14:35:32;100532.47;;;22.53;100.00
45763;BME280;37512;52.408;13.356;2022-08-19T14:39:37;100533.78;;;22.87;100.00
45763;BME280;37512;52.408;13.356;2022-08-19T14:43:39;100525.16;;;23.16;100.00
45763;BME280;37512;52.408;13.356;2022-08-19T14:47:41;100537.41;;;23.13;100.00
45763;BME280;37512;52.408;13.356;2022-08-19T14:51:45;100539.78;;;23.50;100.00
45763;BME280;37512;52.408;13.356;2022-08-19T14:55:48;100540.78;;;23.21;100.00
45763;BME280;37512;52.408;13.356;2022-08-19T14:59:49;100562.47;;;23.37;100.00
45763;BME280;37512;52.408;13.356;2022-08-19T15:03:51;100565.59;;;22.91;100.00
45763;BME280;37512;52.408;13.356;2022-08-19T15:07:56;100578.41;;;22.70;100.00
45763;BME280;37512;52.408;13.356;2022-08-19T15:11:57;100574.97;;;22.24;100.00
45763;BME280;37512;52.408;13.356;2022-08-19T15:16:01;100581.41;;;22.25;100.00
45763;BME280;37512;52.408;13.356;2022-08-19T15:20:03;100588.22;;;22.40;100.00
45763;BME280;37512;52.408;13.356;2022-08-19T15:24:05;100594.88;;;22.33;100.00
45763;BME280;37512;52.408;13.356;2022-08-19T15:28:07;100597.66;;;22.21;100.00
45763;BME280;37512;52.408;13.356;2022-08-19T15:32:10;100607.47;;;22.16;100.00
45763;BME280;37512;52.408;13.356;2022-08-19T15:36:12;100609.22;;;21.68;100.00
45763;BME280;37512;52.408;13.356;2022-08-19T15:40:19;100605.34;;;21.91;100.00
45763;BME280;37512;52.408;13.356;2022-08-19T15:44:21;100593.69;;;21.89;100.00
45763;BME280;37512;52.408;13.356;2022-08-19T15:48:23;100589.69;;;22.03;100.00
45763;BME280;37512;52.408;13.356;2022-08-19T15:52:24;100593.06;;;21.98;100.00
45763;BME280;37512;52.408;13.356;2022-08-19T15:56:26;100584.88;;;21.87;100.00
45763;BME280;37512;52.408;13.356;2022-08-19T16:00:27;100592.63;;;21.70;100.00
45763;BME280;37512;52.408;13.356;2022-08-19T16:04:53;100587.22;;;21.76;100.00
45763;BME280;37512;52.408;13.356;2022-08-19T16:09:14;100581.53;;;21.63;100.00
45763;BME280;37512;52.408;13.356;2022-08-19T16:13:16;100575.03;;;21.79;100.00
45763;BME280;37512;52.408;13.356;2022-08-19T16:17:18;100586.19;;;21.69;100.00
45763;BME280;37512;52.408;13.356;2022-08-19T16:21:21;100589.72;;;21.74;100.00
45763;BME280;37512;52.408;13.356;2022-08-19T16:25:23;100600.13;;;21.89;100.00
45763;BME280;37512;52.408;13.356;2022-08-19T16:29:30;100603.72;;;21.77;100.00
45763;BME280;37512;52.408;13.356;2022-08-19T16:33:40;100598.75;;;21.52;100.00
45763;BME280;37512;52.408;13.356;2022-08-19T16:37:41;100603.25;;;21.17;100.00
45763;BME280;37512;52.408;13.356;2022-08-19T16:41:44;100603.94;;;21.37;100.00
45763;BME280;37512;52.408;13.356;2022-08-19T16:45:47;100605.63;;;21.51;100.00
45763;BME280;37512;52.408;13.356;2022-08-19T16:49:49;100600.97;;;21.28;100.00
45763;BME280;37512;52.408;13.356;2022-08-19T16:53:55;100597.69;;;21.29;100.00
45763;BME280;37512;52.408;13.356;2022-08-19T16:57:56;100603.59;;;21.35;100.00
45763;BME280;37512;52.408;13.356;2022-08-19T17:01:58;100608.47;;;21.51;100.00
45763;BME280;37512;52.408;13.356;2022-08-19T17:06:00;100598.31;;;21.37;100.00
45763;BME280;37512;52.408;13.356;2022-08-19T17:10:04;100604.28;;;21.39;100.00
45763;BME280;37512;52.408;13.356;2022-08-19T17:14:06;100595.91;;;21.36;100.00
45763;BME280;37512;52.408;13.356;2022-08-19T17:18:10;100601.31;;;21.46;100.00
45763;BME280;37512;52.408;13.356;2022-08-19T17:22:12;100609.94;;;21.23;100.00
45763;BME280;37512;52.408;13.356;2022-08-19T17:26:16;100617.91;;;21.28;100.00
45763;BME280;37512;52.408;13.356;2022-08-19T17:30:20;100601.13;;;21.21;100.00
45763;BME280;37512;52.408;13.356;2022-08-19T17:34:22;100602.72;;;21.22;100.00
45763;BME280;37512;52.408;13.356;2022-08-19T17:38:29;100615.50;;;21.26;100.00
45763;BME280;37512;52.408;13.356;2022-08-19T17:42:33;100626.19;;;21.35;100.00
45763;BME280;37512;52.408;13.356;2022-08-19T17:46:36;100625.47;;;21.31;100.00
45763;BME280;37512;52.408;13.356;2022-08-19T17:50:38;100619.47;;;20.96;100.00
45763;BME280;37512;52.408;13.356;2022-08-19T17:54:40;100631.53;;;20.80;100.00
45763;BME280;37512;52.408;13.356;2022-08-19T17:58:42;100639.97;;;20.80;100.00
45763;BME280;37512;52.408;13.356;2022-08-19T18:02:54;100639.81;;;20.87;100.00
45763;BME280;37512;52.408;13.356;2022-08-19T18:06:57;100649.59;;;20.83;100.00
45763;BME280;37512;52.408;13.356;2022-08-19T18:11:08;100646.59;;;20.90;100.00
45763;BME280;37512;52.408;13.356;2022-08-19T18:15:10;100655.41;;;20.76;100.00
45763;BME280;37512;52.408;13.356;2022-08-19T18:19:12;100642.13;;;20.56;100.00
45763;BME280;37512;52.408;13.356;2022-08-19T18:23:13;100645.13;;;20.65;100.00
45763;BME280;37512;52.408;13.356;2022-08-19T18:27:35;100651.66;;;20.62;100.00
45763;BME280;37512;52.408;13.356;2022-08-19T18:31:37;100659.44;;;20.75;100.00
45763;BME280;37512;52.408;13.356;2022-08-19T18:35:41;100668.41;;;20.50;100.00
45763;BME280;37512;52.408;13.356;2022-08-19T18:39:45;100667.47;;;20.76;100.00
45763;BME280;37512;52.408;13.356;2022-08-19T18:44:05;100674.75;;;20.34;100.00
45763;BME280;37512;52.408;13.356;2022-08-19T18:48:29;100671.94;;;20.54;100.00
45763;BME280;37512;52.408;13.356;2022-08-19T18:52:49;100684.53;;;20.49;100.00
45763;BME280;37512;52.408;13.356;2022-08-19T18:56:51;100682.84;;;20.32;100.00
45763;BME280;37512;52.408;13.356;2022-08-19T19:00:55;100680.97;;;20.45;100.00
45763;BME280;37512;52.408;13.356;2022-08-19T19:04:57;100698.19;;;20.31;100.00
45763;BME280;37512;52.408;13.356;2022-08-19T19:09:03;100700.44;;;20.39;100.00
45763;BME280;37512;52.408;13.356;2022-08-19T19:13:04;100716.41;;;20.46;100.00
45763;BME280;37512;52.408;13.356;2022-08-19T19:17:13;100722.50;;;20.64;100.00
45763;BME280;37512;52.408;13.356;2022-08-19T19:21:15;100720.06;;;20.66;100.00
45763;BME280;37512;52.408;13.356;2022-08-19T19:25:16;100722.25;;;20.75;100.00
45763;BME280;37512;52.408;13.356;2022-08-19T19:29:20;100720.13;;;20.63;100.00
45763;BME280;37512;52.408;13.356;2022-08-19T19:33:22;100711.19;;;20.84;100.00
45763;BME280;37512;52.408;13.356;2022-08-19T19:37:24;100723.88;;;20.56;100.00
45763;BME280;37512;52.408;13.356;2022-08-19T19:41:25;100736.94;;;20.46;100.00
45763;BME280;37512;52.408;13.356;2022-08-19T19:45:27;100751.09;;;20.43;100.00
45763;BME280;37512;52.408;13.356;2022-08-19T19:49:30;100737.34;;;20.45;100.00
45763;BME280;37512;52.408;13.356;2022-08-19T19:53:32;100722.25;;;20.55;100.00
45763;BME280;37512;52.408;13.356;2022-08-19T19:57:34;100733.75;;;20.84;100.00
45763;BME280;37512;52.408;13.356;2022-08-19T20:01:35;100742.34;;;20.97;100.00
45763;BME280;37512;52.408;13.356;2022-08-19T20:05:38;100738.34;;;20.78;100.00
45763;BME280;37512;52.408;13.356;2022-08-19T20:09:39;100731.75;;;20.85;100.00
45763;BME280;37512;52.408;13.356;2022-08-19T20:14:03;100748.56;;;21.08;100.00
45763;BME280;37512;52.408;13.356;2022-08-19T20:18:05;100740.59;;;20.43;100.00
45763;BME280;37512;52.408;13.356;2022-08-19T20:22:06;100741.41;;;20.44;100.00
45763;BME280;37512;52.408;13.356;2022-08-19T20:26:08;100731.91;;;20.58;100.00
45763;BME280;37512;52.408;13.356;2022-08-19T20:30:22;100718.78;;;20.87;100.00
45763;BME280;37512;52.408;13.356;2022-08-19T20:34:26;100719.38;;;20.79;100.00
45763;BME280;37512;52.408;13.356;2022-08-19T20:38:28;100727.09;;;20.95;100.00
45763;BME280;37512;52.408;13.356;2022-08-19T20:42:29;100721.78;;;20.60;100.00
45763;BME280;37512;52.408;13.356;2022-08-19T20:46:31;100727.09;;;20.35;100.00
45763;BME280;37512;52.408;13.356;2022-08-19T20:50:34;100721.97;;;20.50;100.00
45763;BME280;37512;52.408;13.356;2022-08-19T20:54:36;100715.03;;;20.54;100.00
45763;BME280;37512;52.408;13.356;2022-08-19T20:58:37;100703.91;;;20.67;100.00